sensor_id;sensor_type;location;lat;lon;timestamp;temperature;humidity
26182;DHT22;13927;51.534;11.866;2023-04-28T00:01:48;5.30;99.90
26182;DHT22;13927;51.534;11.866;2023-04-28T00:04:14;5.20;99.90
26182;DHT22;13927;51.534;11.866;2023-04-28T00:06:40;5.30;99.90
26182;DHT22;13927;51.534;11.866;2023-04-28T00:09:06;5.30;99.90
26182;DHT22;13927;51.534;11.866;2023-04-28T00:11:36;5.30;99.90
26182;DHT22;13927;51.534;11.866;2023-04-28T00:14:04;5.30;99.90
26182;DHT22;13927;51.534;11.866;2023-04-28T00:16:30;5.30;99.90
26182;DHT22;13927;51.534;11.866;2023-04-28T00:18:55;5.30;99.90
26182;DHT22;13927;51.534;11.866;2023-04-28T00:21:21;5.30;99.90
26182;DHT22;13927;51.534;11.866;2023-04-28T00:23:47;5.20;99.90
26182;DHT22;13927;51.534;11.866;2023-04-28T00:26:13;5.20;99.90
26182;DHT22;13927;51.534;11.866;2023-04-28T00:28:38;5.20;99.90
26182;DHT22;13927;51.534;11.866;2023-04-28T00:31:14;5.20;99.90
26182;DHT22;13927;51.534;11.866;2023-04-28T00:33:43;5.10;99.90
26182;DHT22;13927;51.534;11.866;2023-04-28T00:36:09;5.10;99.90
26182;DHT22;13927;51.534;11.866;2023-04-28T00:38:36;5.00;99.90
26182;DHT22;13927;51.534;11.866;2023-04-28T00:41:02;5.00;99.90
26182;DHT22;13927;51.534;11.866;2023-04-28T00:43:28;5.00;99.90
26182;DHT22;13927;51.534;11.866;2023-04-28T00:45:54;5.00;99.90
26182;DHT22;13927;51.534;11.866;2023-04-28T00:48:21;5.00;99.90
26182;DHT22;13927;51.534;11.866;2023-04-28T00:50:49;5.00;99.90
26182;DHT22;13927;51.534;11.866;2023-04-28T00:53:16;5.00;99.90
26182;DHT22;13927;51.534;11.866;2023-04-28T00:55:41;5.00;99.90
26182;DHT22;13927;51.534;11.866;2023-04-28T00:58:18;5.00;99.90
26182;DHT22;13927;51.534;11.866;2023-04-28T01:00:43;5.00;99.90
26182;DHT22;13927;51.534;11.866;2023-04-28T01:03:10;5.00;99.90
26182;DHT22;13927;51.534;11.866;2023-04-28T01:05:36;5.00;99.90
26182;DHT22;13927;51.534;11.866;2023-04-28T01:08:02;5.00;99.90
26182;DHT22;13927;51.534;11.866;2023-04-28T01:10:28;5.00;99.90
26182;DHT22;13927;51.534;11.866;2023-04-28T01:12:58;5.00;99.90
26182;DHT22;13927;51.534;11.866;2023-04-28T01:15:23;4.90;99.90
26182;DHT22;13927;51.534;11.866;2023-04-28T01:17:49;4.90;99.90
26182;DHT22;13927;51.534;11.866;2023-04-28T01:20:15;4.90;99.90
26182;DHT22;13927;51.534;11.866;2023-04-28T01:22:41;5.00;99.90
26182;DHT22;13927;51.534;11.866;2023-04-28T01:25:07;5.00;99.90
26182;DHT22;13927;51.534;11.866;2023-04-28T01:27:33;5.00;99.90
26182;DHT22;13927;51.534;11.866;2023-04-28T01:29:58;5.00;99.90
26182;DHT22;13927;51.534;11.866;2023-04-28T01:32:24;5.00;99.90
26182;DHT22;13927;51.534;11.866;2023-04-28T01:34:50;5.00;99.90
26182;DHT22;13927;51.534;11.866;2023-04-28T01:37:16;5.00;99.90
26182;DHT22;13927;51.534;11.866;2023-04-28T01:39:41;5.00;99.90
26182;DHT22;13927;51.534;11.866;2023-04-28T01:42:07;5.00;99.90
26182;DHT22;13927;51.534;11.866;2023-04-28T01:44:33;4.90;99.90
26182;DHT22;13927;51.534;11.866;2023-04-28T01:46:59;4.90;99.90
26182;DHT22;13927;51.534;11.866;2023-04-28T01:49:25;4.90;99.90
26182;DHT22;13927;51.534;11.866;2023-04-28T01:51:51;5.00;99.90
26182;DHT22;13927;51.534;11.866;2023-04-28T01:54:17;5.00;99.90
26182;DHT22;13927;51.534;11.866;2023-04-28T01:56:43;5.00;99.90
26182;DHT22;13927;51.534;11.866;2023-04-28T01:59:08;5.10;99.90
26182;DHT22;13927;51.534;11.866;2023-04-28T02:01:37;5.00;99.90
26182;DHT22;13927;51.534;11.866;2023-04-28T02:04:03;5.00;99.90
26182;DHT22;13927;51.534;11.866;2023-04-28T02:06:28;5.00;99.90
26182;DHT22;13927;51.534;11.866;2023-04-28T02:08:54;5.00;99.90
26182;DHT22;13927;51.534;11.866;2023-04-28T02:11:20;5.00;99.90
26182;DHT22;13927;51.534;11.866;2023-04-28T02:13:45;5.00;99.90
26182;DHT22;13927;51.534;11.866;2023-04-28T02:16:11;5.00;99.90
26182;DHT22;13927;51.534;11.866;2023-04-28T02:18:37;5.00;99.90
26182;DHT22;13927;51.534;11.866;2023-04-28T02:21:10;5.00;99.90
26182;DHT22;13927;51.534;11.866;2023-04-28T02:23:37;5.00;99.90
26182;DHT22;13927;51.534;11.866;2023-04-28T02:26:03;5.00;99.90
26182;DHT22;13927;51.534;11.866;2023-04-28T02:28:29;5.00;99.90
26182;DHT22;13927;51.534;11.866;2023-04-28T02:31:10;5.00;99.90
26182;DHT22;13927;51.534;11.866;2023-04-28T02:33:36;5.00;99.90
26182;DHT22;13927;51.534;11.866;2023-04-28T02:36:03;4.90;99.90
26182;DHT22;13927;51.534;11.866;2023-04-28T02:38:30;4.90;99.90
26182;DHT22;13927;51.534;11.866;2023-04-28T02:41:00;4.90;99.90
26182;DHT22;13927;51.534;11.866;2023-04-28T02:43:32;4.80;99.90
26182;DHT22;13927;51.534;11.866;2023-04-28T02:45:58;4.80;99.90
26182;DHT22;13927;51.534;11.866;2023-04-28T02:48:24;4.80;99.90
26182;DHT22;13927;51.534;11.866;2023-04-28T02:50:50;4.80;99.90
26182;DHT22;13927;51.534;11.866;2023-04-28T02:53:18;4.80;99.90
26182;DHT22;13927;51.534;11.866;2023-04-28T02:55:44;4.70;99.90
26182;DHT22;13927;51.534;11.866;2023-04-28T02:58:10;4.70;99.90
26182;DHT22;13927;51.534;11.866;2023-04-28T03:00:37;4.70;99.90
26182;DHT22;13927;51.534;11.866;2023-04-28T03:03:03;4.70;99.90
26182;DHT22;13927;51.534;11.866;2023-04-28T03:05:29;4.70;99.90
26182;DHT22;13927;51.534;11.866;2023-04-28T03:07:54;4.70;99.90
26182;DHT22;13927;51.534;11.866;2023-04-28T03:10:20;4.70;99.90
26182;DHT22;13927;51.534;11.866;2023-04-28T03:12:46;4.70;99.90
26182;DHT22;13927;51.534;11.866;2023-04-28T03:15:11;4.70;99.90
26182;DHT22;13927;51.534;11.866;2023-04-28T03:17:38;4.70;99.90
26182;DHT22;13927;51.534;11.866;2023-04-28T03:20:08;4.70;99.90
26182;DHT22;13927;51.534;11.866;2023-04-28T03:22:34;4.70;99.90
26182;DHT22;13927;51.534;11.866;2023-04-28T03:25:00;4.60;99.90
26182;DHT22;13927;51.534;11.866;2023-04-28T03:27:26;4.60;99.90
26182;DHT22;13927;51.534;11.866;2023-04-28T03:29:52;4.60;99.90
26182;DHT22;13927;51.534;11.866;2023-04-28T03:32:18;4.60;99.90
26182;DHT22;13927;51.534;11.866;2023-04-28T03:34:44;4.50;99.90
26182;DHT22;13927;51.534;11.866;2023-04-28T03:37:09;4.50;99.90
26182;DHT22;13927;51.534;11.866;2023-04-28T03:39:36;4.50;99.90
26182;DHT22;13927;51.534;11.866;2023-04-28T03:42:02;4.50;99.90
26182;DHT22;13927;51.534;11.866;2023-04-28T03:44:28;4.50;99.90
26182;DHT22;13927;51.534;11.866;2023-04-28T03:46:54;4.50;99.90
26182;DHT22;13927;51.534;11.866;2023-04-28T03:49:19;4.50;99.90
26182;DHT22;13927;51.534;11.866;2023-04-28T03:51:45;4.50;99.90
26182;DHT22;13927;51.534;11.866;2023-04-28T03:54:12;4.50;99.90
26182;DHT22;13927;51.534;11.866;2023-04-28T03:56:37;4.40;99.90
26182;DHT22;13927;51.534;11.866;2023-04-28T03:59:03;4.40;99.90
26182;DHT22;13927;51.534;11.866;2023-04-28T04:01:29;4.40;99.90
26182;DHT22;13927;51.534;11.866;2023-04-28T04:03:55;4.50;99.90
26182;DHT22;13927;51.534;11.866;2023-04-28T04:06:21;4.40;99.90
26182;DHT22;13927;51.534;11.866;2023-04-28T04:08:46;4.40;99.90
26182;DHT22;13927;51.534;11.866;2023-04-28T04:11:12;4.40;99.90
26182;DHT22;13927;51.534;11.866;2023-04-28T04:13:38;4.40;99.90
26182;DHT22;13927;51.534;11.866;2023-04-28T04:16:04;4.40;99.90
26182;DHT22;13927;51.534;11.866;2023-04-28T04:18:33;4.50;99.90
26182;DHT22;13927;51.534;11.866;2023-04-28T04:20:58;4.50;99.90
26182;DHT22;13927;51.534;11.866;2023-04-28T04:23:24;4.50;99.90
26182;DHT22;13927;51.534;11.866;2023-04-28T04:25:50;4.50;99.90
26182;DHT22;13927;51.534;11.866;2023-04-28T04:28:28;4.60;99.90
26182;DHT22;13927;51.534;11.866;2023-04-28T04:30:54;4.70;99.90
26182;DHT22;13927;51.534;11.866;2023-04-28T04:33:20;4.70;99.90
26182;DHT22;13927;51.534;11.866;2023-04-28T04:35:46;4.80;99.90
26182;DHT22;13927;51.534;11.866;2023-04-28T04:38:12;4.90;99.90
26182;DHT22;13927;51.534;11.866;2023-04-28T04:40:38;4.90;99.90
26182;DHT22;13927;51.534;11.866;2023-04-28T04:43:03;5.00;99.90
26182;DHT22;13927;51.534;11.866;2023-04-28T04:45:29;5.00;99.90
26182;DHT22;13927;51.534;11.866;2023-04-28T04:47:55;5.10;99.90
26182;DHT22;13927;51.534;11.866;2023-04-28T04:50:21;5.20;99.90
26182;DHT22;13927;51.534;11.866;2023-04-28T04:52:46;5.30;99.90
26182;DHT22;13927;51.534;11.866;2023-04-28T04:55:17;5.30;99.90
26182;DHT22;13927;51.534;11.866;2023-04-28T04:57:43;5.40;99.90
26182;DHT22;13927;51.534;11.866;2023-04-28T05:00:09;5.50;99.90
26182;DHT22;13927;51.534;11.866;2023-04-28T05:02:36;5.60;99.90
26182;DHT22;13927;51.534;11.866;2023-04-28T05:05:05;5.70;99.90
26182;DHT22;13927;51.534;11.866;2023-04-28T05:07:30;5.80;99.90
26182;DHT22;13927;51.534;11.866;2023-04-28T05:09:56;6.00;99.90
26182;DHT22;13927;51.534;11.866;2023-04-28T05:12:22;6.20;99.90
26182;DHT22;13927;51.534;11.866;2023-04-28T05:14:48;6.30;99.90
26182;DHT22;13927;51.534;11.866;2023-04-28T05:17:13;6.50;99.90
26182;DHT22;13927;51.534;11.866;2023-04-28T05:19:39;6.60;99.90
26182;DHT22;13927;51.534;11.866;2023-04-28T05:22:05;6.80;99.90
26182;DHT22;13927;51.534;11.866;2023-04-28T05:24:31;7.00;99.90
26182;DHT22;13927;51.534;11.866;2023-04-28T05:26:58;7.10;99.90
26182;DHT22;13927;51.534;11.866;2023-04-28T05:29:24;7.30;99.90
26182;DHT22;13927;51.534;11.866;2023-04-28T05:31:50;7.50;99.90
26182;DHT22;13927;51.534;11.866;2023-04-28T05:34:15;7.80;99.90
26182;DHT22;13927;51.534;11.866;2023-04-28T05:36:41;8.00;99.90
26182;DHT22;13927;51.534;11.866;2023-04-28T05:39:07;8.10;99.90
26182;DHT22;13927;51.534;11.866;2023-04-28T05:41:34;8.30;99.90
26182;DHT22;13927;51.534;11.866;2023-04-28T05:44:01;8.40;99.90
26182;DHT22;13927;51.534;11.866;2023-04-28T05:46:27;8.50;99.90
26182;DHT22;13927;51.534;11.866;2023-04-28T05:48:53;8.60;99.90
26182;DHT22;13927;51.534;11.866;2023-04-28T05:51:19;8.70;99.90
26182;DHT22;13927;51.534;11.866;2023-04-28T05:53:44;8.70;99.90
26182;DHT22;13927;51.534;11.866;2023-04-28T05:56:14;8.80;99.90
26182;DHT22;13927;51.534;11.866;2023-04-28T05:58:40;8.90;99.90
26182;DHT22;13927;51.534;11.866;2023-04-28T06:01:08;9.00;99.90
26182;DHT22;13927;51.534;11.866;2023-04-28T06:03:34;9.10;99.90
26182;DHT22;13927;51.534;11.866;2023-04-28T06:06:00;9.20;99.90
26182;DHT22;13927;51.534;11.866;2023-04-28T06:08:26;9.30;99.90
26182;DHT22;13927;51.534;11.866;2023-04-28T06:10:52;9.40;99.90
26182;DHT22;13927;51.534;11.866;2023-04-28T06:13:17;9.50;99.90
26182;DHT22;13927;51.534;11.866;2023-04-28T06:15:43;9.70;99.90
26182;DHT22;13927;51.534;11.866;2023-04-28T06:18:09;9.80;99.90
26182;DHT22;13927;51.534;11.866;2023-04-28T06:20:35;10.00;99.90
26182;DHT22;13927;51.534;11.866;2023-04-28T06:23:01;10.10;99.90
26182;DHT22;13927;51.534;11.866;2023-04-28T06:25:27;10.20;99.90
26182;DHT22;13927;51.534;11.866;2023-04-28T06:27:53;10.40;99.90
26182;DHT22;13927;51.534;11.866;2023-04-28T06:30:21;10.60;99.90
26182;DHT22;13927;51.534;11.866;2023-04-28T06:32:47;10.80;99.90
26182;DHT22;13927;51.534;11.866;2023-04-28T06:35:16;11.10;99.90
26182;DHT22;13927;51.534;11.866;2023-04-28T06:37:43;11.40;99.90
26182;DHT22;13927;51.534;11.866;2023-04-28T06:40:09;11.50;99.90
26182;DHT22;13927;51.534;11.866;2023-04-28T06:42:35;11.70;99.90
26182;DHT22;13927;51.534;11.866;2023-04-28T06:45:02;11.80;99.90
26182;DHT22;13927;51.534;11.866;2023-04-28T06:47:27;11.90;99.90
26182;DHT22;13927;51.534;11.866;2023-04-28T06:49:53;11.90;99.90
26182;DHT22;13927;51.534;11.866;2023-04-28T06:52:19;12.00;99.90
26182;DHT22;13927;51.534;11.866;2023-04-28T06:54:50;12.10;99.90
26182;DHT22;13927;51.534;11.866;2023-04-28T06:57:16;12.20;99.90
26182;DHT22;13927;51.534;11.866;2023-04-28T06:59:42;12.20;99.90
26182;DHT22;13927;51.534;11.866;2023-04-28T07:02:09;12.30;99.90
26182;DHT22;13927;51.534;11.866;2023-04-28T07:04:35;12.40;99.90
26182;DHT22;13927;51.534;11.866;2023-04-28T07:07:02;12.60;99.90
26182;DHT22;13927;51.534;11.866;2023-04-28T07:09:44;12.70;99.90
26182;DHT22;13927;51.534;11.866;2023-04-28T07:12:11;12.80;99.90
26182;DHT22;13927;51.534;11.866;2023-04-28T07:14:36;12.90;99.90
26182;DHT22;13927;51.534;11.866;2023-04-28T07:17:05;13.00;99.90
26182;DHT22;13927;51.534;11.866;2023-04-28T07:19:31;13.10;99.90
26182;DHT22;13927;51.534;11.866;2023-04-28T07:21:58;13.30;99.90
26182;DHT22;13927;51.534;11.866;2023-04-28T07:24:24;13.40;99.90
26182;DHT22;13927;51.534;11.866;2023-04-28T07:26:51;13.50;99.90
26182;DHT22;13927;51.534;11.866;2023-04-28T07:29:17;13.60;99.90
26182;DHT22;13927;51.534;11.866;2023-04-28T07:31:43;13.80;99.90
26182;DHT22;13927;51.534;11.866;2023-04-28T07:34:09;13.90;99.90
26182;DHT22;13927;51.534;11.866;2023-04-28T07:36:35;14.10;99.90
26182;DHT22;13927;51.534;11.866;2023-04-28T07:39:01;14.30;99.90
26182;DHT22;13927;51.534;11.866;2023-04-28T07:41:26;14.40;99.90
26182;DHT22;13927;51.534;11.866;2023-04-28T07:43:54;14.50;99.90
26182;DHT22;13927;51.534;11.866;2023-04-28T07:46:19;14.50;99.90
26182;DHT22;13927;51.534;11.866;2023-04-28T07:48:45;14.60;99.90
26182;DHT22;13927;51.534;11.866;2023-04-28T07:51:11;14.70;99.90
26182;DHT22;13927;51.534;11.866;2023-04-28T07:53:37;14.70;99.90
26182;DHT22;13927;51.534;11.866;2023-04-28T07:56:02;14.80;99.90
26182;DHT22;13927;51.534;11.866;2023-04-28T07:58:28;14.80;99.90
26182;DHT22;13927;51.534;11.866;2023-04-28T08:00:55;14.80;99.90
26182;DHT22;13927;51.534;11.866;2023-04-28T08:03:20;14.70;99.90
26182;DHT22;13927;51.534;11.866;2023-04-28T08:05:46;14.60;99.90
26182;DHT22;13927;51.534;11.866;2023-04-28T08:08:12;14.60;99.90
26182;DHT22;13927;51.534;11.866;2023-04-28T08:10:38;14.50;99.90
26182;DHT22;13927;51.534;11.866;2023-04-28T08:13:06;14.40;99.90
26182;DHT22;13927;51.534;11.866;2023-04-28T08:15:32;14.30;99.90
26182;DHT22;13927;51.534;11.866;2023-04-28T08:17:58;14.30;99.90
26182;DHT22;13927;51.534;11.866;2023-04-28T08:20:24;14.20;99.90
26182;DHT22;13927;51.534;11.866;2023-04-28T08:22:53;14.20;99.90
26182;DHT22;13927;51.534;11.866;2023-04-28T08:25:20;14.30;99.90
26182;DHT22;13927;51.534;11.866;2023-04-28T08:27:46;14.30;99.90
26182;DHT22;13927;51.534;11.866;2023-04-28T08:30:12;14.40;99.90
26182;DHT22;13927;51.534;11.866;2023-04-28T08:32:37;14.50;99.90
26182;DHT22;13927;51.534;11.866;2023-04-28T08:35:12;14.80;99.90
26182;DHT22;13927;51.534;11.866;2023-04-28T08:37:40;15.00;99.90
26182;DHT22;13927;51.534;11.866;2023-04-28T08:40:07;15.00;99.90
26182;DHT22;13927;51.534;11.866;2023-04-28T08:42:37;14.90;99.90
26182;DHT22;13927;51.534;11.866;2023-04-28T08:45:04;14.70;99.90
26182;DHT22;13927;51.534;11.866;2023-04-28T08:47:36;14.60;99.90
26182;DHT22;13927;51.534;11.866;2023-04-28T08:50:05;14.50;99.90
26182;DHT22;13927;51.534;11.866;2023-04-28T08:52:32;14.40;99.90
26182;DHT22;13927;51.534;11.866;2023-04-28T08:55:04;14.40;99.90
26182;DHT22;13927;51.534;11.866;2023-04-28T08:57:39;14.30;99.90
26182;DHT22;13927;51.534;11.866;2023-04-28T09:00:08;14.20;99.90
26182;DHT22;13927;51.534;11.866;2023-04-28T09:02:34;14.10;99.90
26182;DHT22;13927;51.534;11.866;2023-04-28T09:05:11;14.10;99.90
26182;DHT22;13927;51.534;11.866;2023-04-28T09:07:38;14.00;99.90
26182;DHT22;13927;51.534;11.866;2023-04-28T09:10:23;13.80;99.90
26182;DHT22;13927;51.534;11.866;2023-04-28T09:12:54;13.70;99.90
26182;DHT22;13927;51.534;11.866;2023-04-28T09:15:35;13.70;99.90
26182;DHT22;13927;51.534;11.866;2023-04-28T09:18:06;13.70;99.90
26182;DHT22;13927;51.534;11.866;2023-04-28T09:20:33;13.80;99.90
26182;DHT22;13927;51.534;11.866;2023-04-28T09:23:17;13.70;99.90
26182;DHT22;13927;51.534;11.866;2023-04-28T09:26:00;13.60;99.90
26182;DHT22;13927;51.534;11.866;2023-04-28T09:28:33;13.60;99.90
26182;DHT22;13927;51.534;11.866;2023-04-28T09:31:00;13.70;99.90
26182;DHT22;13927;51.534;11.866;2023-04-28T09:33:26;13.70;99.90
26182;DHT22;13927;51.534;11.866;2023-04-28T09:35:52;13.70;99.90
26182;DHT22;13927;51.534;11.866;2023-04-28T09:38:20;13.70;99.90
26182;DHT22;13927;51.534;11.866;2023-04-28T09:43:24;13.90;99.90
26182;DHT22;13927;51.534;11.866;2023-04-28T09:46:01;13.80;99.90
26182;DHT22;13927;51.534;11.866;2023-04-28T09:48:37;13.80;99.90
26182;DHT22;13927;51.534;11.866;2023-04-28T09:51:05;13.90;99.90
26182;DHT22;13927;51.534;11.866;2023-04-28T09:53:33;13.90;99.90
26182;DHT22;13927;51.534;11.866;2023-04-28T09:56:01;13.90;99.90
26182;DHT22;13927;51.534;11.866;2023-04-28T09:58:28;13.90;99.90
26182;DHT22;13927;51.534;11.866;2023-04-28T10:00:59;13.80;99.90
26182;DHT22;13927;51.534;11.866;2023-04-28T10:03:27;13.60;99.90
26182;DHT22;13927;51.534;11.866;2023-04-28T10:05:58;13.60;99.90
26182;DHT22;13927;51.534;11.866;2023-04-28T10:08:25;13.70;99.90
26182;DHT22;13927;51.534;11.866;2023-04-28T10:10:52;13.70;99.90
26182;DHT22;13927;51.534;11.866;2023-04-28T10:13:28;13.60;99.90
26182;DHT22;13927;51.534;11.866;2023-04-28T10:15:54;13.60;99.90
26182;DHT22;13927;51.534;11.866;2023-04-28T10:18:22;13.50;99.90
26182;DHT22;13927;51.534;11.866;2023-04-28T10:20:59;13.40;99.90
26182;DHT22;13927;51.534;11.866;2023-04-28T10:27:19;13.20;99.90
26182;DHT22;13927;51.534;11.866;2023-04-28T10:29:29;13.20;99.90
26182;DHT22;13927;51.534;11.866;2023-04-28T10:32:16;13.30;99.90
26182;DHT22;13927;51.534;11.866;2023-04-28T10:35:59;13.40;99.90
26182;DHT22;13927;51.534;11.866;2023-04-28T10:38:19;13.50;99.90
26182;DHT22;13927;51.534;11.866;2023-04-28T10:40:52;13.60;99.90
26182;DHT22;13927;51.534;11.866;2023-04-28T10:48:21;13.80;99.90
26182;DHT22;13927;51.534;11.866;2023-04-28T10:56:22;14.10;99.90
26182;DHT22;13927;51.534;11.866;2023-04-28T10:58:54;14.10;99.90
26182;DHT22;13927;51.534;11.866;2023-04-28T11:08:49;14.50;99.90
26182;DHT22;13927;51.534;11.866;2023-04-28T11:11:20;14.50;99.90
26182;DHT22;13927;51.534;11.866;2023-04-28T11:13:47;14.60;99.90
26182;DHT22;13927;51.534;11.866;2023-04-28T11:16:23;14.60;99.90
26182;DHT22;13927;51.534;11.866;2023-04-28T11:18:53;14.60;99.90
26182;DHT22;13927;51.534;11.866;2023-04-28T11:21:20;14.60;99.90
26182;DHT22;13927;51.534;11.866;2023-04-28T11:23:48;14.60;99.90
26182;DHT22;13927;51.534;11.866;2023-04-28T11:26:14;14.60;99.90
26182;DHT22;13927;51.534;11.866;2023-04-28T11:28:55;14.60;99.90
26182;DHT22;13927;51.534;11.866;2023-04-28T11:31:50;14.80;99.90
26182;DHT22;13927;51.534;11.866;2023-04-28T11:34:20;15.00;99.90
26182;DHT22;13927;51.534;11.866;2023-04-28T11:36:46;15.20;99.90
26182;DHT22;13927;51.534;11.866;2023-04-28T11:39:12;15.30;99.90
26182;DHT22;13927;51.534;11.866;2023-04-28T11:41:58;15.50;99.90
26182;DHT22;13927;51.534;11.866;2023-04-28T11:44:27;15.70;99.90
26182;DHT22;13927;51.534;11.866;2023-04-28T11:49:25;15.90;99.90
26182;DHT22;13927;51.534;11.866;2023-04-28T11:52:04;15.90;99.90
26182;DHT22;13927;51.534;11.866;2023-04-28T11:54:31;15.90;99.90
26182;DHT22;13927;51.534;11.866;2023-04-28T11:57:25;15.80;99.90
26182;DHT22;13927;51.534;11.866;2023-04-28T11:59:51;15.70;99.90
26182;DHT22;13927;51.534;11.866;2023-04-28T12:02:27;15.70;99.90
26182;DHT22;13927;51.534;11.866;2023-04-28T12:05:05;15.60;99.90
26182;DHT22;13927;51.534;11.866;2023-04-28T12:07:42;15.50;99.90
26182;DHT22;13927;51.534;11.866;2023-04-28T12:10:13;15.40;99.90
26182;DHT22;13927;51.534;11.866;2023-04-28T12:12:41;15.20;99.90
26182;DHT22;13927;51.534;11.866;2023-04-28T12:15:07;15.20;99.90
26182;DHT22;13927;51.534;11.866;2023-04-28T12:17:39;15.30;99.90
26182;DHT22;13927;51.534;11.866;2023-04-28T12:20:10;15.50;99.90
26182;DHT22;13927;51.534;11.866;2023-04-28T12:22:48;15.60;99.90
26182;DHT22;13927;51.534;11.866;2023-04-28T12:25:16;15.70;99.90
26182;DHT22;13927;51.534;11.866;2023-04-28T12:28:05;15.80;99.90
26182;DHT22;13927;51.534;11.866;2023-04-28T12:30:34;15.90;99.90
26182;DHT22;13927;51.534;11.866;2023-04-28T12:33:21;16.00;99.90
26182;DHT22;13927;51.534;11.866;2023-04-28T12:35:48;16.10;99.90
26182;DHT22;13927;51.534;11.866;2023-04-28T12:38:14;16.00;99.90
26182;DHT22;13927;51.534;11.866;2023-04-28T12:40:41;16.00;99.90
26182;DHT22;13927;51.534;11.866;2023-04-28T12:43:10;15.80;99.90
26182;DHT22;13927;51.534;11.866;2023-04-28T12:48:40;15.60;99.90
26182;DHT22;13927;51.534;11.866;2023-04-28T12:51:06;15.50;99.90
26182;DHT22;13927;51.534;11.866;2023-04-28T12:53:36;15.40;99.90
26182;DHT22;13927;51.534;11.866;2023-04-28T12:56:02;15.40;99.90
26182;DHT22;13927;51.534;11.866;2023-04-28T12:58:27;15.40;99.90
26182;DHT22;13927;51.534;11.866;2023-04-28T13:00:53;15.50;99.90
26182;DHT22;13927;51.534;11.866;2023-04-28T13:03:19;15.40;99.90
26182;DHT22;13927;51.534;11.866;2023-04-28T13:05:45;15.40;99.90
26182;DHT22;13927;51.534;11.866;2023-04-28T13:08:11;15.40;99.90
26182;DHT22;13927;51.534;11.866;2023-04-28T13:10:39;15.50;99.90
26182;DHT22;13927;51.534;11.866;2023-04-28T13:13:06;15.50;99.90
26182;DHT22;13927;51.534;11.866;2023-04-28T13:15:32;15.40;99.90
26182;DHT22;13927;51.534;11.866;2023-04-28T13:21:57;15.40;99.90
26182;DHT22;13927;51.534;11.866;2023-04-28T13:24:28;15.40;99.90
26182;DHT22;13927;51.534;11.866;2023-04-28T13:26:54;15.40;99.90
26182;DHT22;13927;51.534;11.866;2023-04-28T13:29:20;15.30;99.90
26182;DHT22;13927;51.534;11.866;2023-04-28T13:31:46;15.20;99.90
26182;DHT22;13927;51.534;11.866;2023-04-28T13:34:18;15.10;99.90
26182;DHT22;13927;51.534;11.866;2023-04-28T13:36:44;15.00;99.90
26182;DHT22;13927;51.534;11.866;2023-04-28T13:39:12;14.80;99.90
26182;DHT22;13927;51.534;11.866;2023-04-28T13:41:41;14.60;99.90
26182;DHT22;13927;51.534;11.866;2023-04-28T13:44:07;14.50;99.90
26182;DHT22;13927;51.534;11.866;2023-04-28T13:46:35;14.50;99.90
26182;DHT22;13927;51.534;11.866;2023-04-28T13:49:00;14.20;99.90
26182;DHT22;13927;51.534;11.866;2023-04-28T13:51:26;14.10;99.90
26182;DHT22;13927;51.534;11.866;2023-04-28T13:53:53;14.10;99.90
26182;DHT22;13927;51.534;11.866;2023-04-28T13:56:19;14.10;99.90
26182;DHT22;13927;51.534;11.866;2023-04-28T13:58:47;14.10;99.90
26182;DHT22;13927;51.534;11.866;2023-04-28T14:01:13;14.20;99.90
26182;DHT22;13927;51.534;11.866;2023-04-28T14:03:39;14.30;99.90
26182;DHT22;13927;51.534;11.866;2023-04-28T14:06:12;14.30;99.90
26182;DHT22;13927;51.534;11.866;2023-04-28T14:08:38;14.40;99.90
26182;DHT22;13927;51.534;11.866;2023-04-28T14:11:04;14.50;99.90
26182;DHT22;13927;51.534;11.866;2023-04-28T14:13:30;14.60;99.90
26182;DHT22;13927;51.534;11.866;2023-04-28T14:15:56;14.60;99.90
26182;DHT22;13927;51.534;11.866;2023-04-28T14:18:23;14.60;99.90
26182;DHT22;13927;51.534;11.866;2023-04-28T14:20:49;14.70;99.90
26182;DHT22;13927;51.534;11.866;2023-04-28T14:23:15;14.70;99.90
26182;DHT22;13927;51.534;11.866;2023-04-28T14:25:45;14.80;99.90
26182;DHT22;13927;51.534;11.866;2023-04-28T14:31:33;14.70;99.90
26182;DHT22;13927;51.534;11.866;2023-04-28T14:34:00;14.60;99.90
26182;DHT22;13927;51.534;11.866;2023-04-28T14:36:29;14.60;99.90
26182;DHT22;13927;51.534;11.866;2023-04-28T14:39:02;14.50;99.90
26182;DHT22;13927;51.534;11.866;2023-04-28T14:41:28;14.40;99.90
26182;DHT22;13927;51.534;11.866;2023-04-28T14:43:55;14.30;99.90
26182;DHT22;13927;51.534;11.866;2023-04-28T14:46:21;14.30;99.90
26182;DHT22;13927;51.534;11.866;2023-04-28T14:48:50;14.30;99.90
26182;DHT22;13927;51.534;11.866;2023-04-28T14:51:19;14.30;99.90
26182;DHT22;13927;51.534;11.866;2023-04-28T14:53:46;14.20;99.90
26182;DHT22;13927;51.534;11.866;2023-04-28T14:56:12;14.20;99.90
26182;DHT22;13927;51.534;11.866;2023-04-28T14:58:38;14.30;99.90
26182;DHT22;13927;51.534;11.866;2023-04-28T15:01:04;14.30;99.90
26182;DHT22;13927;51.534;11.866;2023-04-28T15:03:30;14.20;99.90
26182;DHT22;13927;51.534;11.866;2023-04-28T15:06:10;14.30;99.90
26182;DHT22;13927;51.534;11.866;2023-04-28T15:08:41;14.30;99.90
26182;DHT22;13927;51.534;11.866;2023-04-28T15:11:07;14.30;99.90
26182;DHT22;13927;51.534;11.866;2023-04-28T15:13:33;14.30;99.90
26182;DHT22;13927;51.534;11.866;2023-04-28T15:15:59;14.30;99.90
26182;DHT22;13927;51.534;11.866;2023-04-28T15:18:24;14.20;99.90
26182;DHT22;13927;51.534;11.866;2023-04-28T15:20:50;14.20;99.90
26182;DHT22;13927;51.534;11.866;2023-04-28T15:23:16;14.30;99.90
26182;DHT22;13927;51.534;11.866;2023-04-28T15:25:42;14.30;99.90
26182;DHT22;13927;51.534;11.866;2023-04-28T15:28:09;14.40;99.90
26182;DHT22;13927;51.534;11.866;2023-04-28T15:30:35;14.40;99.90
26182;DHT22;13927;51.534;11.866;2023-04-28T15:33:01;14.50;99.90
26182;DHT22;13927;51.534;11.866;2023-04-28T15:36:05;14.60;99.90
26182;DHT22;13927;51.534;11.866;2023-04-28T15:38:31;14.60;99.90
26182;DHT22;13927;51.534;11.866;2023-04-28T15:40:58;14.50;99.90
26182;DHT22;13927;51.534;11.866;2023-04-28T15:43:24;14.60;99.90
26182;DHT22;13927;51.534;11.866;2023-04-28T15:45:49;14.50;99.90
26182;DHT22;13927;51.534;11.866;2023-04-28T15:48:16;14.50;99.90
26182;DHT22;13927;51.534;11.866;2023-04-28T15:50:42;14.60;99.90
26182;DHT22;13927;51.534;11.866;2023-04-28T15:53:07;14.60;99.90
26182;DHT22;13927;51.534;11.866;2023-04-28T15:55:33;14.60;99.90
26182;DHT22;13927;51.534;11.866;2023-04-28T15:57:59;14.60;99.90
26182;DHT22;13927;51.534;11.866;2023-04-28T16:00:25;14.50;99.90
26182;DHT22;13927;51.534;11.866;2023-04-28T16:02:52;14.50;99.90
26182;DHT22;13927;51.534;11.866;2023-04-28T16:05:18;14.50;99.90